sensor_id;sensor_type;location;lat;lon;timestamp;P1;durP1;ratioP1;P2;durP2;ratioP2
69912;SDS011;57198;52.082;5.108;2023-11-22T00:01:21;12.02;;;8.20;;
69912;SDS011;57198;52.082;5.108;2023-11-22T00:03:48;15.82;;;9.88;;
69912;SDS011;57198;52.082;5.108;2023-11-22T00:06:16;14.25;;;8.95;;
69912;SDS011;57198;52.082;5.108;2023-11-22T00:08:46;13.68;;;10.32;;
69912;SDS011;57198;52.082;5.108;2023-11-22T00:11:14;14.77;;;10.90;;
69912;SDS011;57198;52.082;5.108;2023-11-22T00:13:41;11.93;;;9.45;;
69912;SDS011;57198;52.082;5.108;2023-11-22T00:16:09;10.40;;;8.32;;
69912;SDS011;57198;52.082;5.108;2023-11-22T00:18:36;12.70;;;11.05;;
69912;SDS011;57198;52.082;5.108;2023-11-22T00:21:05;14.07;;;11.02;;
69912;SDS011;57198;52.082;5.108;2023-11-22T00:23:32;13.20;;;8.80;;
69912;SDS011;57198;52.082;5.108;2023-11-22T00:26:00;10.18;;;8.38;;
69912;SDS011;57198;52.082;5.108;2023-11-22T00:28:27;8.75;;;7.60;;
69912;SDS011;57198;52.082;5.108;2023-11-22T00:30:55;10.77;;;8.35;;
69912;SDS011;57198;52.082;5.108;2023-11-22T00:33:23;12.48;;;8.30;;
69912;SDS011;57198;52.082;5.108;2023-11-22T00:35:51;12.07;;;8.23;;
69912;SDS011;57198;52.082;5.108;2023-11-22T00:38:23;11.77;;;8.25;;
69912;SDS011;57198;52.082;5.108;2023-11-22T00:40:51;10.00;;;7.88;;
69912;SDS011;57198;52.082;5.108;2023-11-22T00:43:19;9.23;;;7.60;;
69912;SDS011;57198;52.082;5.108;2023-11-22T00:45:46;9.90;;;8.10;;
69912;SDS011;57198;52.082;5.108;2023-11-22T00:48:14;11.93;;;7.47;;
69912;SDS011;57198;52.082;5.108;2023-11-22T00:50:41;13.90;;;9.82;;
69912;SDS011;57198;52.082;5.108;2023-11-22T00:53:08;32.03;;;16.02;;
69912;SDS011;57198;52.082;5.108;2023-11-22T00:55:36;18.08;;;11.32;;
69912;SDS011;57198;52.082;5.108;2023-11-22T00:58:03;17.30;;;10.55;;
69912;SDS011;57198;52.082;5.108;2023-11-22T01:00:31;13.63;;;9.47;;
69912;SDS011;57198;52.082;5.108;2023-11-22T01:02:58;12.73;;;10.45;;
69912;SDS011;57198;52.082;5.108;2023-11-22T01:05:26;12.43;;;10.00;;
69912;SDS011;57198;52.082;5.108;2023-11-22T01:07:53;11.30;;;8.55;;
69912;SDS011;57198;52.082;5.108;2023-11-22T01:10:21;10.05;;;8.00;;
69912;SDS011;57198;52.082;5.108;2023-11-22T01:12:49;12.13;;;8.27;;
69912;SDS011;57198;52.082;5.108;2023-11-22T01:15:16;10.57;;;8.15;;
69912;SDS011;57198;52.082;5.108;2023-11-22T01:17:43;11.80;;;8.30;;
69912;SDS011;57198;52.082;5.108;2023-11-22T01:20:11;14.20;;;8.52;;
69912;SDS011;57198;52.082;5.108;2023-11-22T01:22:41;11.23;;;9.10;;
69912;SDS011;57198;52.082;5.108;2023-11-22T01:25:08;10.57;;;8.40;;
69912;SDS011;57198;52.082;5.108;2023-11-22T01:27:36;13.85;;;8.60;;
69912;SDS011;57198;52.082;5.108;2023-11-22T01:30:04;12.15;;;8.35;;
69912;SDS011;57198;52.082;5.108;2023-11-22T01:32:33;10.50;;;8.63;;
69912;SDS011;57198;52.082;5.108;2023-11-22T01:35:01;14.38;;;8.85;;
69912;SDS011;57198;52.082;5.108;2023-11-22T01:37:30;10.53;;;8.10;;
69912;SDS011;57198;52.082;5.108;2023-11-22T01:39:57;11.27;;;7.95;;
69912;SDS011;57198;52.082;5.108;2023-11-22T01:42:25;11.73;;;8.25;;
69912;SDS011;57198;52.082;5.108;2023-11-22T01:44:52;10.30;;;9.23;;
69912;SDS011;57198;52.082;5.108;2023-11-22T01:47:19;11.10;;;9.32;;
69912;SDS011;57198;52.082;5.108;2023-11-22T01:49:47;13.07;;;8.77;;
69912;SDS011;57198;52.082;5.108;2023-11-22T01:52:14;11.82;;;8.57;;
69912;SDS011;57198;52.082;5.108;2023-11-22T01:54:42;11.25;;;7.95;;
69912;SDS011;57198;52.082;5.108;2023-11-22T01:57:10;11.40;;;8.70;;
69912;SDS011;57198;52.082;5.108;2023-11-22T01:59:38;12.38;;;9.05;;
69912;SDS011;57198;52.082;5.108;2023-11-22T02:02:06;13.20;;;9.10;;
69912;SDS011;57198;52.082;5.108;2023-11-22T02:04:34;11.35;;;8.30;;
69912;SDS011;57198;52.082;5.108;2023-11-22T02:07:02;13.65;;;10.38;;
69912;SDS011;57198;52.082;5.108;2023-11-22T02:09:30;14.50;;;9.45;;
69912;SDS011;57198;52.082;5.108;2023-11-22T02:11:57;15.30;;;9.85;;
69912;SDS011;57198;52.082;5.108;2023-11-22T02:14:25;14.87;;;9.27;;
69912;SDS011;57198;52.082;5.108;2023-11-22T02:16:52;12.02;;;9.27;;
69912;SDS011;57198;52.082;5.108;2023-11-22T02:19:20;11.27;;;9.48;;
69912;SDS011;57198;52.082;5.108;2023-11-22T02:21:47;14.18;;;9.23;;
69912;SDS011;57198;52.082;5.108;2023-11-22T02:24:15;14.27;;;10.02;;
69912;SDS011;57198;52.082;5.108;2023-11-22T02:26:45;13.10;;;9.93;;
69912;SDS011;57198;52.082;5.108;2023-11-22T02:29:13;12.73;;;9.93;;
69912;SDS011;57198;52.082;5.108;2023-11-22T02:31:42;13.40;;;10.13;;
69912;SDS011;57198;52.082;5.108;2023-11-22T02:34:09;14.20;;;10.13;;
69912;SDS011;57198;52.082;5.108;2023-11-22T02:36:37;13.77;;;10.48;;
69912;SDS011;57198;52.082;5.108;2023-11-22T02:39:04;13.70;;;9.43;;
69912;SDS011;57198;52.082;5.108;2023-11-22T02:41:32;11.40;;;9.10;;
69912;SDS011;57198;52.082;5.108;2023-11-22T02:44:01;11.00;;;9.57;;
69912;SDS011;57198;52.082;5.108;2023-11-22T02:46:28;12.85;;;9.98;;
69912;SDS011;57198;52.082;5.108;2023-11-22T02:48:57;12.63;;;9.38;;
69912;SDS011;57198;52.082;5.108;2023-11-22T02:51:25;13.23;;;9.27;;
69912;SDS011;57198;52.082;5.108;2023-11-22T02:53:53;12.25;;;9.80;;
69912;SDS011;57198;52.082;5.108;2023-11-22T02:56:20;13.57;;;10.07;;
69912;SDS011;57198;52.082;5.108;2023-11-22T02:58:48;12.88;;;10.15;;
69912;SDS011;57198;52.082;5.108;2023-11-22T03:01:16;14.23;;;10.55;;
69912;SDS011;57198;52.082;5.108;2023-11-22T03:03:44;16.23;;;10.70;;
69912;SDS011;57198;52.082;5.108;2023-11-22T03:06:12;13.02;;;10.05;;
69912;SDS011;57198;52.082;5.108;2023-11-22T03:08:39;12.70;;;10.10;;
69912;SDS011;57198;52.082;5.108;2023-11-22T03:11:07;15.43;;;10.32;;
69912;SDS011;57198;52.082;5.108;2023-11-22T03:13:34;14.48;;;10.70;;
69912;SDS011;57198;52.082;5.108;2023-11-22T03:16:01;14.70;;;10.43;;
69912;SDS011;57198;52.082;5.108;2023-11-22T03:18:30;14.18;;;10.35;;
69912;SDS011;57198;52.082;5.108;2023-11-22T03:20:59;16.90;;;10.80;;
69912;SDS011;57198;52.082;5.108;2023-11-22T03:23:27;15.15;;;10.85;;
69912;SDS011;57198;52.082;5.108;2023-11-22T03:25:55;13.77;;;10.68;;
69912;SDS011;57198;52.082;5.108;2023-11-22T03:28:22;14.33;;;9.53;;
69912;SDS011;57198;52.082;5.108;2023-11-22T03:30:49;15.05;;;10.23;;
69912;SDS011;57198;52.082;5.108;2023-11-22T03:33:16;14.13;;;10.20;;
69912;SDS011;57198;52.082;5.108;2023-11-22T03:35:44;14.02;;;9.90;;
69912;SDS011;57198;52.082;5.108;2023-11-22T03:38:11;15.85;;;10.68;;
69912;SDS011;57198;52.082;5.108;2023-11-22T03:40:39;14.67;;;9.27;;
69912;SDS011;57198;52.082;5.108;2023-11-22T03:43:06;11.90;;;10.48;;
69912;SDS011;57198;52.082;5.108;2023-11-22T03:45:36;14.05;;;10.65;;
69912;SDS011;57198;52.082;5.108;2023-11-22T03:48:04;13.55;;;10.40;;
69912;SDS011;57198;52.082;5.108;2023-11-22T03:50:31;14.77;;;10.93;;
69912;SDS011;57198;52.082;5.108;2023-11-22T03:52:58;14.33;;;10.97;;
69912;SDS011;57198;52.082;5.108;2023-11-22T03:55:26;16.15;;;11.07;;
69912;SDS011;57198;52.082;5.108;2023-11-22T03:57:53;14.35;;;10.90;;
69912;SDS011;57198;52.082;5.108;2023-11-22T04:00:20;12.48;;;10.55;;
69912;SDS011;57198;52.082;5.108;2023-11-22T04:02:48;12.57;;;10.57;;
69912;SDS011;57198;52.082;5.108;2023-11-22T04:05:16;14.57;;;10.27;;
69912;SDS011;57198;52.082;5.108;2023-11-22T04:07:43;13.57;;;10.38;;
69912;SDS011;57198;52.082;5.108;2023-11-22T04:10:10;14.50;;;11.25;;
69912;SDS011;57198;52.082;5.108;2023-11-22T04:12:37;14.60;;;10.25;;
69912;SDS011;57198;52.082;5.108;2023-11-22T04:15:05;14.23;;;10.73;;
69912;SDS011;57198;52.082;5.108;2023-11-22T04:17:36;13.40;;;10.10;;
69912;SDS011;57198;52.082;5.108;2023-11-22T04:20:05;13.00;;;10.02;;
69912;SDS011;57198;52.082;5.108;2023-11-22T04:22:36;14.20;;;10.10;;
69912;SDS011;57198;52.082;5.108;2023-11-22T04:25:04;13.25;;;10.05;;
69912;SDS011;57198;52.082;5.108;2023-11-22T04:27:32;14.15;;;10.75;;
69912;SDS011;57198;52.082;5.108;2023-11-22T04:30:00;15.00;;;10.70;;
69912;SDS011;57198;52.082;5.108;2023-11-22T04:32:27;11.73;;;9.80;;
69912;SDS011;57198;52.082;5.108;2023-11-22T04:34:55;11.73;;;10.32;;
69912;SDS011;57198;52.082;5.108;2023-11-22T04:37:22;12.70;;;10.55;;
69912;SDS011;57198;52.082;5.108;2023-11-22T04:39:53;14.65;;;10.00;;
69912;SDS011;57198;52.082;5.108;2023-11-22T04:42:20;12.77;;;9.57;;
69912;SDS011;57198;52.082;5.108;2023-11-22T04:44:49;12.18;;;10.05;;
69912;SDS011;57198;52.082;5.108;2023-11-22T04:47:16;14.20;;;10.68;;
69912;SDS011;57198;52.082;5.108;2023-11-22T04:49:43;14.70;;;10.65;;
69912;SDS011;57198;52.082;5.108;2023-11-22T04:52:11;13.63;;;10.60;;
69912;SDS011;57198;52.082;5.108;2023-11-22T04:54:38;13.53;;;10.70;;
69912;SDS011;57198;52.082;5.108;2023-11-22T04:57:06;14.52;;;10.65;;
69912;SDS011;57198;52.082;5.108;2023-11-22T04:59:33;14.20;;;10.23;;
69912;SDS011;57198;52.082;5.108;2023-11-22T05:02:00;13.27;;;10.43;;
69912;SDS011;57198;52.082;5.108;2023-11-22T05:04:28;14.20;;;10.77;;
69912;SDS011;57198;52.082;5.108;2023-11-22T05:06:55;13.40;;;10.40;;
69912;SDS011;57198;52.082;5.108;2023-11-22T05:09:22;11.50;;;9.60;;
69912;SDS011;57198;52.082;5.108;2023-11-22T05:11:50;14.60;;;10.18;;
69912;SDS011;57198;52.082;5.108;2023-11-22T05:14:18;11.32;;;9.15;;
69912;SDS011;57198;52.082;5.108;2023-11-22T05:16:46;16.25;;;10.18;;
69912;SDS011;57198;52.082;5.108;2023-11-22T05:19:13;13.23;;;9.17;;
69912;SDS011;57198;52.082;5.108;2023-11-22T05:21:40;14.07;;;9.98;;
69912;SDS011;57198;52.082;5.108;2023-11-22T05:24:08;13.55;;;10.27;;
69912;SDS011;57198;52.082;5.108;2023-11-22T05:26:35;14.77;;;10.43;;
69912;SDS011;57198;52.082;5.108;2023-11-22T05:29:03;12.48;;;10.20;;
69912;SDS011;57198;52.082;5.108;2023-11-22T05:31:31;16.20;;;10.73;;
69912;SDS011;57198;52.082;5.108;2023-11-22T05:33:59;14.85;;;10.70;;
69912;SDS011;57198;52.082;5.108;2023-11-22T05:36:26;12.68;;;10.35;;
69912;SDS011;57198;52.082;5.108;2023-11-22T05:38:53;13.48;;;10.25;;
69912;SDS011;57198;52.082;5.108;2023-11-22T05:41:21;13.95;;;11.10;;
69912;SDS011;57198;52.082;5.108;2023-11-22T05:43:49;14.70;;;10.53;;
69912;SDS011;57198;52.082;5.108;2023-11-22T05:46:16;13.50;;;9.93;;
69912;SDS011;57198;52.082;5.108;2023-11-22T05:48:48;13.95;;;10.90;;
69912;SDS011;57198;52.082;5.108;2023-11-22T05:51:17;15.38;;;10.55;;
69912;SDS011;57198;52.082;5.108;2023-11-22T05:53:45;13.50;;;10.05;;
69912;SDS011;57198;52.082;5.108;2023-11-22T05:56:12;14.17;;;10.33;;
69912;SDS011;57198;52.082;5.108;2023-11-22T05:58:41;18.25;;;9.93;;
69912;SDS011;57198;52.082;5.108;2023-11-22T06:01:09;15.32;;;10.07;;
69912;SDS011;57198;52.082;5.108;2023-11-22T06:03:38;15.23;;;10.55;;
69912;SDS011;57198;52.082;5.108;2023-11-22T06:06:06;14.27;;;11.30;;
69912;SDS011;57198;52.082;5.108;2023-11-22T06:08:33;14.07;;;9.80;;
69912;SDS011;57198;52.082;5.108;2023-11-22T06:11:01;13.68;;;9.90;;
69912;SDS011;57198;52.082;5.108;2023-11-22T06:13:29;15.23;;;9.40;;
69912;SDS011;57198;52.082;5.108;2023-11-22T06:15:57;15.32;;;10.77;;
69912;SDS011;57198;52.082;5.108;2023-11-22T06:18:25;14.68;;;10.57;;
69912;SDS011;57198;52.082;5.108;2023-11-22T06:20:56;15.77;;;10.30;;
69912;SDS011;57198;52.082;5.108;2023-11-22T06:23:24;16.88;;;10.38;;
69912;SDS011;57198;52.082;5.108;2023-11-22T06:25:51;13.30;;;9.98;;
69912;SDS011;57198;52.082;5.108;2023-11-22T06:28:18;17.85;;;11.20;;
69912;SDS011;57198;52.082;5.108;2023-11-22T06:30:46;13.70;;;9.73;;
69912;SDS011;57198;52.082;5.108;2023-11-22T06:33:13;14.43;;;10.73;;
69912;SDS011;57198;52.082;5.108;2023-11-22T06:35:41;15.18;;;10.35;;
69912;SDS011;57198;52.082;5.108;2023-11-22T06:38:09;18.42;;;11.10;;
69912;SDS011;57198;52.082;5.108;2023-11-22T06:40:36;12.85;;;10.10;;
69912;SDS011;57198;52.082;5.108;2023-11-22T06:43:03;14.85;;;10.68;;
69912;SDS011;57198;52.082;5.108;2023-11-22T06:45:31;17.27;;;9.67;;
69912;SDS011;57198;52.082;5.108;2023-11-22T06:47:58;16.33;;;10.20;;
69912;SDS011;57198;52.082;5.108;2023-11-22T06:50:25;16.77;;;11.30;;
69912;SDS011;57198;52.082;5.108;2023-11-22T06:52:53;17.65;;;10.98;;
69912;SDS011;57198;52.082;5.108;2023-11-22T06:55:21;16.27;;;11.40;;
69912;SDS011;57198;52.082;5.108;2023-11-22T06:57:48;14.97;;;10.83;;
69912;SDS011;57198;52.082;5.108;2023-11-22T07:00:16;16.48;;;10.20;;
69912;SDS011;57198;52.082;5.108;2023-11-22T07:02:44;15.70;;;10.48;;
69912;SDS011;57198;52.082;5.108;2023-11-22T07:05:11;16.02;;;10.48;;
69912;SDS011;57198;52.082;5.108;2023-11-22T07:07:40;16.58;;;11.30;;
69912;SDS011;57198;52.082;5.108;2023-11-22T07:10:07;14.70;;;11.20;;
69912;SDS011;57198;52.082;5.108;2023-11-22T07:12:35;15.35;;;11.27;;
69912;SDS011;57198;52.082;5.108;2023-11-22T07:15:03;15.30;;;11.07;;
69912;SDS011;57198;52.082;5.108;2023-11-22T07:17:33;15.13;;;10.60;;
69912;SDS011;57198;52.082;5.108;2023-11-22T07:20:01;17.75;;;11.10;;
69912;SDS011;57198;52.082;5.108;2023-11-22T07:22:28;16.87;;;10.33;;
69912;SDS011;57198;52.082;5.108;2023-11-22T07:24:56;16.98;;;10.68;;
69912;SDS011;57198;52.082;5.108;2023-11-22T07:27:28;16.95;;;11.32;;
69912;SDS011;57198;52.082;5.108;2023-11-22T07:29:55;15.00;;;10.40;;
69912;SDS011;57198;52.082;5.108;2023-11-22T07:32:23;17.48;;;11.40;;
69912;SDS011;57198;52.082;5.108;2023-11-22T07:34:50;16.77;;;11.90;;
69912;SDS011;57198;52.082;5.108;2023-11-22T07:37:22;15.60;;;11.05;;
69912;SDS011;57198;52.082;5.108;2023-11-22T07:39:50;14.73;;;10.98;;
69912;SDS011;57198;52.082;5.108;2023-11-22T07:42:19;18.45;;;12.25;;
69912;SDS011;57198;52.082;5.108;2023-11-22T07:44:48;18.73;;;11.07;;
69912;SDS011;57198;52.082;5.108;2023-11-22T07:47:22;18.63;;;11.37;;
69912;SDS011;57198;52.082;5.108;2023-11-22T07:49:51;17.13;;;11.85;;
69912;SDS011;57198;52.082;5.108;2023-11-22T07:52:18;23.08;;;12.10;;
69912;SDS011;57198;52.082;5.108;2023-11-22T07:54:45;15.93;;;11.15;;
69912;SDS011;57198;52.082;5.108;2023-11-22T07:57:13;14.88;;;11.52;;
69912;SDS011;57198;52.082;5.108;2023-11-22T07:59:41;15.70;;;10.93;;
69912;SDS011;57198;52.082;5.108;2023-11-22T08:02:08;16.75;;;12.23;;
69912;SDS011;57198;52.082;5.108;2023-11-22T08:04:38;15.23;;;10.95;;
69912;SDS011;57198;52.082;5.108;2023-11-22T08:07:07;16.75;;;10.82;;
69912;SDS011;57198;52.082;5.108;2023-11-22T08:09:34;17.25;;;11.75;;
69912;SDS011;57198;52.082;5.108;2023-11-22T08:12:02;14.97;;;11.13;;
69912;SDS011;57198;52.082;5.108;2023-11-22T08:14:32;17.60;;;12.23;;
69912;SDS011;57198;52.082;5.108;2023-11-22T08:16:59;14.15;;;11.45;;
69912;SDS011;57198;52.082;5.108;2023-11-22T08:19:28;20.23;;;11.85;;
69912;SDS011;57198;52.082;5.108;2023-11-22T08:21:55;18.55;;;11.05;;
69912;SDS011;57198;52.082;5.108;2023-11-22T08:24:23;19.80;;;13.77;;
69912;SDS011;57198;52.082;5.108;2023-11-22T08:26:50;16.05;;;11.82;;
69912;SDS011;57198;52.082;5.108;2023-11-22T08:29:18;16.05;;;11.05;;
69912;SDS011;57198;52.082;5.108;2023-11-22T08:31:45;15.73;;;11.23;;
69912;SDS011;57198;52.082;5.108;2023-11-22T08:34:14;16.75;;;11.82;;
69912;SDS011;57198;52.082;5.108;2023-11-22T08:36:42;16.53;;;11.10;;
69912;SDS011;57198;52.082;5.108;2023-11-22T08:39:09;15.90;;;11.50;;
69912;SDS011;57198;52.082;5.108;2023-11-22T08:41:37;15.57;;;10.93;;
69912;SDS011;57198;52.082;5.108;2023-11-22T08:44:04;17.65;;;11.43;;
69912;SDS011;57198;52.082;5.108;2023-11-22T08:46:33;16.17;;;11.25;;
69912;SDS011;57198;52.082;5.108;2023-11-22T08:49:01;17.03;;;10.87;;
69912;SDS011;57198;52.082;5.108;2023-11-22T08:51:29;15.75;;;11.30;;
69912;SDS011;57198;52.082;5.108;2023-11-22T08:53:56;14.98;;;11.50;;
69912;SDS011;57198;52.082;5.108;2023-11-22T08:56:24;17.75;;;11.40;;
69912;SDS011;57198;52.082;5.108;2023-11-22T08:58:52;18.60;;;11.02;;
69912;SDS011;57198;52.082;5.108;2023-11-22T09:01:21;19.50;;;11.73;;
69912;SDS011;57198;52.082;5.108;2023-11-22T09:03:48;14.60;;;10.30;;
69912;SDS011;57198;52.082;5.108;2023-11-22T09:06:17;15.82;;;11.30;;
69912;SDS011;57198;52.082;5.108;2023-11-22T09:08:45;18.17;;;11.25;;
69912;SDS011;57198;52.082;5.108;2023-11-22T09:11:13;15.65;;;11.88;;
69912;SDS011;57198;52.082;5.108;2023-11-22T09:13:42;18.30;;;11.70;;
69912;SDS011;57198;52.082;5.108;2023-11-22T09:16:09;17.35;;;10.75;;
69912;SDS011;57198;52.082;5.108;2023-11-22T09:18:39;14.25;;;11.38;;
69912;SDS011;57198;52.082;5.108;2023-11-22T09:21:06;19.75;;;12.02;;
69912;SDS011;57198;52.082;5.108;2023-11-22T09:23:35;15.38;;;10.93;;
69912;SDS011;57198;52.082;5.108;2023-11-22T09:26:03;17.87;;;10.73;;
69912;SDS011;57198;52.082;5.108;2023-11-22T09:28:31;15.32;;;11.35;;
69912;SDS011;57198;52.082;5.108;2023-11-22T09:30:59;15.55;;;11.43;;
69912;SDS011;57198;52.082;5.108;2023-11-22T09:33:33;14.98;;;11.38;;
69912;SDS011;57198;52.082;5.108;2023-11-22T09:36:00;15.90;;;11.00;;
69912;SDS011;57198;52.082;5.108;2023-11-22T09:38:34;18.27;;;11.47;;
69912;SDS011;57198;52.082;5.108;2023-11-22T09:41:02;15.98;;;11.77;;
69912;SDS011;57198;52.082;5.108;2023-11-22T09:43:29;17.33;;;12.35;;
69912;SDS011;57198;52.082;5.108;2023-11-22T09:45:57;18.05;;;12.65;;
69912;SDS011;57198;52.082;5.108;2023-11-22T09:48:26;16.85;;;12.48;;
69912;SDS011;57198;52.082;5.108;2023-11-22T09:56:11;19.55;;;13.57;;
69912;SDS011;57198;52.082;5.108;2023-11-22T09:58:42;16.63;;;10.93;;
69912;SDS011;57198;52.082;5.108;2023-11-22T10:01:11;16.17;;;12.10;;
69912;SDS011;57198;52.082;5.108;2023-11-22T10:03:40;16.47;;;11.97;;
69912;SDS011;57198;52.082;5.108;2023-11-22T10:06:08;15.10;;;11.85;;
69912;SDS011;57198;52.082;5.108;2023-11-22T10:08:36;15.30;;;11.00;;
69912;SDS011;57198;52.082;5.108;2023-11-22T10:11:05;20.23;;;12.00;;
69912;SDS011;57198;52.082;5.108;2023-11-22T10:13:33;19.27;;;11.60;;
69912;SDS011;57198;52.082;5.108;2023-11-22T10:16:08;16.27;;;11.77;;
69912;SDS011;57198;52.082;5.108;2023-11-22T10:18:43;15.80;;;10.88;;
69912;SDS011;57198;52.082;5.108;2023-11-22T10:21:24;15.52;;;11.25;;
69912;SDS011;57198;52.082;5.108;2023-11-22T10:23:55;17.65;;;11.63;;
69912;SDS011;57198;52.082;5.108;2023-11-22T10:26:26;17.20;;;12.23;;
69912;SDS011;57198;52.082;5.108;2023-11-22T10:28:55;17.07;;;11.57;;
69912;SDS011;57198;52.082;5.108;2023-11-22T10:31:23;15.55;;;11.68;;
69912;SDS011;57198;52.082;5.108;2023-11-22T10:33:51;16.02;;;12.10;;
69912;SDS011;57198;52.082;5.108;2023-11-22T10:36:19;16.48;;;11.13;;
69912;SDS011;57198;52.082;5.108;2023-11-22T10:38:49;16.25;;;12.10;;
69912;SDS011;57198;52.082;5.108;2023-11-22T10:41:20;14.97;;;11.37;;
69912;SDS011;57198;52.082;5.108;2023-11-22T10:43:50;17.38;;;11.95;;
69912;SDS011;57198;52.082;5.108;2023-11-22T10:46:20;15.30;;;11.75;;
69912;SDS011;57198;52.082;5.108;2023-11-22T10:48:49;15.57;;;11.35;;
69912;SDS011;57198;52.082;5.108;2023-11-22T10:51:16;14.50;;;12.27;;
69912;SDS011;57198;52.082;5.108;2023-11-22T10:53:48;14.80;;;11.60;;
69912;SDS011;57198;52.082;5.108;2023-11-22T10:56:19;18.38;;;11.10;;
69912;SDS011;57198;52.082;5.108;2023-11-22T10:58:49;16.05;;;11.98;;
69912;SDS011;57198;52.082;5.108;2023-11-22T11:01:17;16.90;;;11.02;;
69912;SDS011;57198;52.082;5.108;2023-11-22T11:04:08;14.90;;;10.82;;
69912;SDS011;57198;52.082;5.108;2023-11-22T11:06:34;14.87;;;10.77;;
69912;SDS011;57198;52.082;5.108;2023-11-22T11:09:03;15.10;;;11.40;;
69912;SDS011;57198;52.082;5.108;2023-11-22T11:11:37;15.02;;;10.85;;
69912;SDS011;57198;52.082;5.108;2023-11-22T11:14:08;15.93;;;11.30;;
69912;SDS011;57198;52.082;5.108;2023-11-22T11:16:38;13.70;;;10.25;;
69912;SDS011;57198;52.082;5.108;2023-11-22T11:19:08;15.60;;;11.07;;
69912;SDS011;57198;52.082;5.108;2023-11-22T11:21:36;18.65;;;11.70;;
69912;SDS011;57198;52.082;5.108;2023-11-22T11:24:04;14.38;;;11.57;;
69912;SDS011;57198;52.082;5.108;2023-11-22T11:26:32;14.57;;;10.85;;
69912;SDS011;57198;52.082;5.108;2023-11-22T11:29:03;16.80;;;12.07;;
69912;SDS011;57198;52.082;5.108;2023-11-22T11:31:31;14.83;;;12.13;;
69912;SDS011;57198;52.082;5.108;2023-11-22T11:34:05;17.45;;;11.45;;
69912;SDS011;57198;52.082;5.108;2023-11-22T11:36:33;17.73;;;12.70;;
69912;SDS011;57198;52.082;5.108;2023-11-22T11:39:01;16.48;;;12.52;;
69912;SDS011;57198;52.082;5.108;2023-11-22T11:41:30;17.13;;;12.85;;
69912;SDS011;57198;52.082;5.108;2023-11-22T11:44:08;17.50;;;13.13;;
69912;SDS011;57198;52.082;5.108;2023-11-22T11:46:37;18.05;;;13.13;;
69912;SDS011;57198;52.082;5.108;2023-11-22T11:49:08;23.02;;;13.43;;
69912;SDS011;57198;52.082;5.108;2023-11-22T11:51:38;16.77;;;12.45;;
69912;SDS011;57198;52.082;5.108;2023-11-22T11:54:05;17.05;;;12.45;;
69912;SDS011;57198;52.082;5.108;2023-11-22T11:56:33;17.80;;;12.67;;
69912;SDS011;57198;52.082;5.108;2023-11-22T11:59:02;17.13;;;12.95;;
69912;SDS011;57198;52.082;5.108;2023-11-22T12:01:30;15.88;;;12.02;;
69912;SDS011;57198;52.082;5.108;2023-11-22T12:04:02;17.23;;;12.07;;
69912;SDS011;57198;52.082;5.108;2023-11-22T12:06:30;17.08;;;12.68;;
69912;SDS011;57198;52.082;5.108;2023-11-22T12:09:02;19.90;;;13.00;;
69912;SDS011;57198;52.082;5.108;2023-11-22T12:11:30;15.13;;;12.05;;
69912;SDS011;57198;52.082;5.108;2023-11-22T12:13:57;15.55;;;12.38;;
69912;SDS011;57198;52.082;5.108;2023-11-22T12:16:25;14.68;;;12.27;;
69912;SDS011;57198;52.082;5.108;2023-11-22T12:18:54;15.10;;;12.45;;
69912;SDS011;57198;52.082;5.108;2023-11-22T12:21:22;13.50;;;11.90;;
69912;SDS011;57198;52.082;5.108;2023-11-22T12:23:49;16.10;;;12.13;;
69912;SDS011;57198;52.082;5.108;2023-11-22T12:26:19;12.52;;;11.00;;
69912;SDS011;57198;52.082;5.108;2023-11-22T12:28:48;14.55;;;11.55;;
69912;SDS011;57198;52.082;5.108;2023-11-22T12:31:29;13.45;;;11.32;;
69912;SDS011;57198;52.082;5.108;2023-11-22T12:34:02;12.87;;;11.37;;
69912;SDS011;57198;52.082;5.108;2023-11-22T12:36:30;18.80;;;14.95;;
69912;SDS011;57198;52.082;5.108;2023-11-22T12:38:57;15.27;;;11.10;;
69912;SDS011;57198;52.082;5.108;2023-11-22T12:41:30;13.48;;;11.98;;
69912;SDS011;57198;52.082;5.108;2023-11-22T12:44:03;12.05;;;10.75;;
69912;SDS011;57198;52.082;5.108;2023-11-22T12:46:44;14.97;;;10.80;;
69912;SDS011;57198;52.082;5.108;2023-11-22T12:49:11;15.35;;;12.05;;
69912;SDS011;57198;52.082;5.108;2023-11-22T12:51:44;16.77;;;11.95;;
69912;SDS011;57198;52.082;5.108;2023-11-22T12:54:12;14.75;;;10.70;;
69912;SDS011;57198;52.082;5.108;2023-11-22T12:56:40;16.92;;;12.68;;
69912;SDS011;57198;52.082;5.108;2023-11-22T12:59:08;16.40;;;11.53;;
69912;SDS011;57198;52.082;5.108;2023-11-22T13:01:36;16.55;;;12.07;;
69912;SDS011;57198;52.082;5.108;2023-11-22T13:04:03;19.23;;;13.60;;
69912;SDS011;57198;52.082;5.108;2023-11-22T13:06:31;20.52;;;13.88;;
69912;SDS011;57198;52.082;5.108;2023-11-22T13:08:59;17.77;;;13.30;;
69912;SDS011;57198;52.082;5.108;2023-11-22T13:11:26;17.47;;;12.90;;
69912;SDS011;57198;52.082;5.108;2023-11-22T13:13:53;16.80;;;12.98;;
69912;SDS011;57198;52.082;5.108;2023-11-22T13:16:21;17.92;;;12.35;;
69912;SDS011;57198;52.082;5.108;2023-11-22T13:18:48;18.50;;;12.63;;
69912;SDS011;57198;52.082;5.108;2023-11-22T13:21:16;20.75;;;14.27;;
69912;SDS011;57198;52.082;5.108;2023-11-22T13:23:43;18.90;;;13.03;;
69912;SDS011;57198;52.082;5.108;2023-11-22T13:26:11;21.58;;;14.07;;
69912;SDS011;57198;52.082;5.108;2023-11-22T13:28:40;20.73;;;13.38;;
69912;SDS011;57198;52.082;5.108;2023-11-22T13:31:08;21.27;;;13.82;;
69912;SDS011;57198;52.082;5.108;2023-11-22T13:33:36;20.42;;;14.00;;
69912;SDS011;57198;52.082;5.108;2023-11-22T13:36:05;19.53;;;13.37;;
69912;SDS011;57198;52.082;5.108;2023-11-22T13:38:34;20.20;;;13.23;;
69912;SDS011;57198;52.082;5.108;2023-11-22T13:41:01;23.17;;;14.70;;
69912;SDS011;57198;52.082;5.108;2023-11-22T13:43:29;21.70;;;14.52;;
69912;SDS011;57198;52.082;5.108;2023-11-22T13:45:57;18.35;;;12.50;;
69912;SDS011;57198;52.082;5.108;2023-11-22T13:48:25;21.33;;;12.67;;
69912;SDS011;57198;52.082;5.108;2023-11-22T13:50:53;20.15;;;13.00;;
69912;SDS011;57198;52.082;5.108;2023-11-22T13:53:20;20.98;;;13.55;;
69912;SDS011;57198;52.082;5.108;2023-11-22T13:55:49;19.02;;;12.55;;
69912;SDS011;57198;52.082;5.108;2023-11-22T13:58:18;16.70;;;11.65;;
69912;SDS011;57198;52.082;5.108;2023-11-22T14:00:45;19.30;;;12.67;;
69912;SDS011;57198;52.082;5.108;2023-11-22T14:03:14;17.27;;;11.25;;
69912;SDS011;57198;52.082;5.108;2023-11-22T14:05:43;15.98;;;11.35;;
69912;SDS011;57198;52.082;5.108;2023-11-22T14:08:10;15.40;;;10.82;;
69912;SDS011;57198;52.082;5.108;2023-11-22T14:10:40;14.77;;;11.35;;
69912;SDS011;57198;52.082;5.108;2023-11-22T14:13:08;12.67;;;10.03;;
69912;SDS011;57198;52.082;5.108;2023-11-22T14:15:35;14.02;;;10.23;;
69912;SDS011;57198;52.082;5.108;2023-11-22T14:18:04;14.05;;;11.10;;
69912;SDS011;57198;52.082;5.108;2023-11-22T14:20:31;13.50;;;9.52;;
69912;SDS011;57198;52.082;5.108;2023-11-22T14:23:01;14.23;;;11.23;;
69912;SDS011;57198;52.082;5.108;2023-11-22T14:25:28;14.33;;;10.37;;
69912;SDS011;57198;52.082;5.108;2023-11-22T14:27:56;14.23;;;9.95;;
69912;SDS011;57198;52.082;5.108;2023-11-22T14:30:23;14.27;;;11.13;;
69912;SDS011;57198;52.082;5.108;2023-11-22T14:32:53;15.65;;;11.00;;
69912;SDS011;57198;52.082;5.108;2023-11-22T14:35:21;15.60;;;11.35;;